Time;durP1;ratioP1;P1;durP2;ratioP2;P2;SDS_P1;SDS_P2;PMS_P1;PMS_P2;Temp;Humidity;BMP_temperature;BMP_pressure;BME280_temperature;BME280_humidity;BME280_pressure;Samples;Min_cycle;Max_cycle;Signal;HPM_P1;HPM_P2
2022/07/17 00:01:16;;;;;;;7.33;6.73;;;20.20;66.80;;;;;;5096104;28;20442;-68
2022/07/17 00:03:43;;;;;;;7.63;6.93;;;20.20;67.50;;;;;;5095895;28;20952;-68
2022/07/17 00:06:10;;;;;;;7.50;6.90;;;20.20;67.20;;;;;;5095973;28;20478;-68
2022/07/17 00:08:37;;;;;;;8.20;6.23;;;20.20;67.30;;;;;;5095915;28;20441;-68
2022/07/17 00:11:04;;;;;;;6.90;6.30;;;20.20;67.30;;;;;;5095896;28;20563;-68
2022/07/17 00:13:32;;;;;;;7.37;6.77;;;20.20;67.70;;;;;;5095464;28;20520;-68
2022/07/17 00:15:59;;;;;;;5.90;5.40;;;20.10;68.00;;;;;;5095625;28;20470;-68
2022/07/17 00:18:26;;;;;;;7.77;6.30;;;20.00;68.40;;;;;;5095789;28;20477;-68
2022/07/17 00:20:53;;;;;;;6.70;6.00;;;20.00;68.60;;;;;;5095730;28;20451;-68
2022/07/17 00:23:20;;;;;;;6.60;6.10;;;20.00;68.60;;;;;;5095674;28;20463;-68
2022/07/17 00:25:47;;;;;;;6.97;6.37;;;20.00;68.60;;;;;;5095385;28;20452;-68
2022/07/17 00:28:14;;;;;;;6.80;6.17;;;20.00;69.10;;;;;;5095305;28;20599;-68
2022/07/17 00:30:42;;;;;;;6.90;6.20;;;19.90;69.60;;;;;;5095523;28;20475;-68
2022/07/17 00:33:09;;;;;;;6.43;5.83;;;19.90;69.80;;;;;;5095026;28;20485;-68
2022/07/17 00:35:36;;;;;;;7.20;6.50;;;19.80;69.70;;;;;;5095143;28;20473;-68
2022/07/17 00:38:03;;;;;;;6.43;5.90;;;19.80;69.90;;;;;;5095413;28;20445;-68
2022/07/17 00:40:30;;;;;;;7.57;6.97;;;19.80;70.00;;;;;;5095464;28;20538;-68
2022/07/17 00:42:57;;;;;;;6.60;6.00;;;19.80;70.10;;;;;;5095389;28;20464;-68
2022/07/17 00:45:24;;;;;;;6.93;6.32;;;19.80;70.50;;;;;;5094875;28;20962;-68
2022/07/17 00:47:56;;;;;;;6.13;5.63;;;19.80;70.70;;;;;;5095255;28;20206;-68
2022/07/17 00:50:24;;;;;;;7.07;6.47;;;19.70;70.50;;;;;;5095271;28;20867;-68
2022/07/17 00:52:52;;;;;;;6.90;6.40;;;19.70;71.10;;;;;;5094720;28;21039;-69
2022/07/17 00:55:19;;;;;;;6.90;6.20;;;19.60;71.30;;;;;;5095068;28;20477;-68
2022/07/17 00:57:48;;;;;;;6.70;6.05;;;19.60;71.80;;;;;;5094904;28;20492;-68
2022/07/17 01:00:16;;;;;;;6.15;5.70;;;19.50;71.40;;;;;;5095047;28;20235;-68
2022/07/17 01:02:47;;;;;;;7.53;6.80;;;19.40;72.30;;;;;;5094813;28;20255;-68
2022/07/17 01:05:16;;;;;;;7.05;6.45;;;19.40;73.30;;;;;;5094619;28;20420;-68
2022/07/17 01:07:44;;;;;;;7.00;6.37;;;19.40;73.40;;;;;;5095023;28;20241;-68
2022/07/17 01:10:11;;;;;;;7.28;6.68;;;19.40;73.60;;;;;;5094840;28;20440;-69
2022/07/17 01:12:40;;;;;;;7.07;6.47;;;19.40;73.60;;;;;;5094654;28;20226;-68
2022/07/17 01:15:08;;;;;;;6.75;6.15;;;19.40;73.60;;;;;;5094435;28;20581;-68
2022/07/17 01:17:36;;;;;;;7.10;6.60;;;19.40;73.90;;;;;;5094616;28;20587;-68
2022/07/17 01:20:04;;;;;;;7.38;6.50;;;19.40;73.70;;;;;;5094556;28;20232;-68
2022/07/17 01:22:33;;;;;;;6.90;6.30;;;19.30;74.00;;;;;;5094904;28;20242;-68
2022/07/17 01:25:01;;;;;;;7.03;6.43;;;19.40;74.10;;;;;;5094347;28;20257;-68
2022/07/17 01:27:28;;;;;;;6.50;6.00;;;19.30;74.60;;;;;;5094448;28;20312;-68
2022/07/17 01:29:58;;;;;;;6.95;6.45;;;19.30;74.90;;;;;;5094396;28;20619;-68
2022/07/17 01:32:32;;;;;;;7.13;6.43;;;19.30;75.30;;;;;;5094204;28;20704;-68
2022/07/17 01:34:59;;;;;;;7.00;6.50;;;19.30;75.40;;;;;;5093868;28;20254;-68
2022/07/17 01:37:26;;;;;;;8.10;7.35;;;19.30;76.00;;;;;;5094042;28;20721;-68
2022/07/17 01:39:54;;;;;;;6.68;6.15;;;19.20;76.20;;;;;;5094304;28;20235;-68
2022/07/17 01:42:22;;;;;;;7.40;6.80;;;19.20;76.20;;;;;;5094110;28;20288;-68
2022/07/17 01:44:49;;;;;;;7.87;7.17;;;19.20;76.10;;;;;;5093798;28;20199;-68
2022/07/17 01:47:16;;;;;;;7.38;6.78;;;19.20;76.10;;;;;;5094049;28;20870;-68
2022/07/17 01:49:47;;;;;;;8.25;6.43;;;19.20;76.10;;;;;;5094159;28;20676;-68
2022/07/17 01:52:14;;;;;;;7.40;6.80;;;19.20;76.60;;;;;;5093991;28;20284;-68
2022/07/17 01:54:41;;;;;;;6.97;6.32;;;19.10;77.20;;;;;;5093481;28;20230;-68
2022/07/17 01:57:11;;;;;;;7.47;6.80;;;19.10;77.40;;;;;;5093961;28;20230;-68
2022/07/17 01:59:39;;;;;;;6.95;6.18;;;19.00;77.80;;;;;;5093853;28;20246;-68
2022/07/17 02:02:07;;;;;;;6.83;6.23;;;19.10;78.00;;;;;;5093780;28;20762;-68
2022/07/17 02:04:34;;;;;;;6.97;6.38;;;19.10;77.90;;;;;;5093742;28;20438;-68
2022/07/17 02:07:01;;;;;;;7.47;6.78;;;19.00;78.30;;;;;;5093696;28;20208;-68
2022/07/17 02:09:28;;;;;;;6.97;6.35;;;19.00;78.80;;;;;;5093133;28;20241;-68
2022/07/17 02:11:55;;;;;;;7.55;6.90;;;18.90;79.30;;;;;;5093704;28;20289;-68
2022/07/17 02:14:23;;;;;;;7.68;7.07;;;18.90;80.00;;;;;;5093266;28;20250;-68
2022/07/17 02:16:50;;;;;;;8.20;7.50;;;18.80;80.90;;;;;;5093744;28;20234;-68
2022/07/17 02:19:17;;;;;;;8.02;7.32;;;18.70;81.70;;;;;;5093769;28;20233;-68
2022/07/17 02:21:44;;;;;;;8.15;7.45;;;18.60;82.20;;;;;;5093462;28;20245;-68
2022/07/17 02:24:11;;;;;;;8.20;7.45;;;18.60;82.60;;;;;;5093227;28;20238;-68
2022/07/17 02:26:38;;;;;;;9.15;8.35;;;18.60;82.40;;;;;;5093644;28;20206;-68
2022/07/17 02:29:05;;;;;;;8.20;7.50;;;18.60;82.30;;;;;;5093336;28;20233;-68
2022/07/17 02:31:33;;;;;;;9.07;8.27;;;18.60;82.80;;;;;;5093554;28;20241;-68
2022/07/17 02:34:00;;;;;;;9.43;8.00;;;18.60;83.30;;;;;;5093315;28;20221;-68
2022/07/17 02:36:27;;;;;;;8.80;8.00;;;18.60;83.60;;;;;;5093549;28;20229;-68
2022/07/17 02:38:54;;;;;;;9.60;7.47;;;18.40;84.20;;;;;;5093269;28;20216;-68
2022/07/17 02:41:21;;;;;;;8.18;7.40;;;18.40;85.30;;;;;;5093457;28;20244;-68
2022/07/17 02:43:48;;;;;;;9.40;8.50;;;18.40;85.90;;;;;;5093379;28;20257;-68
2022/07/17 02:46:15;;;;;;;7.90;7.10;;;18.40;86.10;;;;;;5093494;28;20233;-68
2022/07/17 02:48:43;;;;;;;8.57;7.65;;;18.40;86.40;;;;;;5093246;28;20252;-68
2022/07/17 02:51:11;;;;;;;8.77;7.97;;;18.40;85.90;;;;;;5093439;28;20621;-68
2022/07/17 02:53:37;;;;;;;8.90;8.02;;;18.40;86.00;;;;;;5092919;28;20261;-68
2022/07/17 02:56:05;;;;;;;9.23;8.52;;;18.40;86.50;;;;;;5092926;28;20237;-68
2022/07/17 02:58:32;;;;;;;9.10;8.20;;;18.30;86.50;;;;;;5093380;28;20208;-68
2022/07/17 03:00:59;;;;;;;12.65;9.60;;;18.20;87.40;;;;;;5093139;28;20234;-68
2022/07/17 03:03:26;;;;;;;10.75;9.70;;;18.10;87.80;;;;;;5092985;28;20720;-68
2022/07/17 03:05:54;;;;;;;10.77;8.73;;;18.10;88.50;;;;;;5093054;28;20245;-68
2022/07/17 03:08:21;;;;;;;9.90;9.00;;;18.10;88.80;;;;;;5093147;28;20682;-68
2022/07/17 03:10:48;;;;;;;9.20;8.40;;;18.20;89.40;;;;;;5093318;28;20333;-68
2022/07/17 03:13:14;;;;;;;9.82;8.82;;;18.20;89.70;;;;;;5093205;28;20275;-68
2022/07/17 03:15:41;;;;;;;9.68;8.75;;;18.20;89.60;;;;;;5092784;28;20322;-68
2022/07/17 03:18:08;;;;;;;10.20;9.30;;;18.20;90.00;;;;;;5093249;28;20308;-68
2022/07/17 03:20:35;;;;;;;9.82;8.93;;;18.10;90.20;;;;;;5093629;28;20244;-68
2022/07/17 03:23:03;;;;;;;10.15;9.15;;;18.10;90.30;;;;;;5096625;28;20305;-69
2022/07/17 03:25:30;;;;;;;8.93;8.13;;;18.10;90.10;;;;;;5096629;28;20235;-68
2022/07/17 03:27:57;;;;;;;10.45;9.35;;;18.10;90.00;;;;;;5096653;28;20660;-68
2022/07/17 03:30:24;;;;;;;11.00;8.70;;;18.10;89.50;;;;;;5096742;28;20252;-68
2022/07/17 03:32:51;;;;;;;8.95;8.07;;;18.20;90.00;;;;;;5096569;28;20222;-68
2022/07/17 03:35:18;;;;;;;10.70;9.70;;;18.20;90.10;;;;;;5096513;28;20254;-68
2022/07/17 03:37:45;;;;;;;9.90;8.90;;;18.00;90.30;;;;;;5096535;28;20202;-68
2022/07/17 03:40:13;;;;;;;10.07;9.15;;;18.00;90.60;;;;;;5096299;28;20234;-68
2022/07/17 03:42:40;;;;;;;9.98;9.07;;;17.80;90.80;;;;;;5096182;28;20268;-68
2022/07/17 03:45:08;;;;;;;10.82;9.45;;;17.50;91.40;;;;;;5096289;28;20194;-68
2022/07/17 03:47:35;;;;;;;10.30;9.30;;;17.50;92.10;;;;;;5096288;28;20206;-68
2022/07/17 03:50:02;;;;;;;10.85;9.73;;;17.40;92.40;;;;;;5096257;28;20682;-68
2022/07/17 03:52:29;;;;;;;10.90;9.80;;;17.50;93.00;;;;;;5095982;28;20245;-69
2022/07/17 03:54:56;;;;;;;11.43;10.40;;;17.30;92.80;;;;;;5095984;28;20264;-68
2022/07/17 03:57:24;;;;;;;11.10;10.00;;;17.30;92.90;;;;;;5096234;28;20198;-68
2022/07/17 03:59:51;;;;;;;10.45;9.45;;;17.30;93.40;;;;;;5096160;28;20625;-68
2022/07/17 04:02:18;;;;;;;10.95;9.95;;;17.30;93.50;;;;;;5095814;28;20253;-68
2022/07/17 04:04:45;;;;;;;10.23;9.18;;;17.40;93.40;;;;;;5095878;28;20229;-68
2022/07/17 04:07:26;;;;;;;9.65;8.65;;;17.60;93.20;;;;;;5095971;28;20212;-67
2022/07/17 04:09:54;;;;;;;10.60;9.70;;;17.60;93.00;;;;;;5096034;28;20186;-67
2022/07/17 04:12:21;;;;;;;10.63;9.48;;;17.70;93.00;;;;;;5095860;28;20226;-67
2022/07/17 04:14:50;;;;;;;10.77;9.77;;;17.70;92.80;;;;;;5095803;28;20217;-68
2022/07/17 04:17:17;;;;;;;10.35;9.35;;;17.60;93.10;;;;;;5096114;28;20702;-68
2022/07/17 04:19:44;;;;;;;11.32;10.20;;;17.50;93.50;;;;;;5095976;28;20202;-68
2022/07/17 04:22:11;;;;;;;10.07;9.15;;;17.20;93.80;;;;;;5096056;28;20230;-68
2022/07/17 04:24:38;;;;;;;10.82;9.82;;;17.00;94.50;;;;;;5095820;28;20248;-67
2022/07/17 04:27:05;;;;;;;10.52;9.60;;;16.90;95.10;;;;;;5095710;28;20241;-68
2022/07/17 04:29:32;;;;;;;11.23;10.20;;;16.90;95.70;;;;;;5095755;28;20201;-68
2022/07/17 04:32:00;;;;;;;10.27;9.30;;;17.00;95.80;;;;;;5095353;28;20229;-68
2022/07/17 04:34:27;;;;;;;11.77;10.13;;;17.20;95.20;;;;;;5095023;28;20305;-68
2022/07/17 04:36:54;;;;;;;10.23;9.25;;;17.20;95.20;;;;;;5095637;28;20251;-68
2022/07/17 04:39:23;;;;;;;10.32;9.32;;;17.30;94.70;;;;;;5095519;28;20237;-68
2022/07/17 04:41:50;;;;;;;10.77;9.70;;;17.30;95.00;;;;;;5095363;28;20292;-68
2022/07/17 04:44:16;;;;;;;9.25;8.35;;;17.30;94.90;;;;;;5095287;28;20230;-68
2022/07/17 04:46:43;;;;;;;10.60;9.70;;;17.30;95.10;;;;;;5095424;28;20245;-68
2022/07/17 04:49:12;;;;;;;9.93;9.02;;;17.30;94.80;;;;;;5095470;28;20241;-68
2022/07/17 04:51:39;;;;;;;9.40;8.60;;;17.40;94.50;;;;;;5095523;28;20234;-68
2022/07/17 04:54:06;;;;;;;9.95;9.10;;;17.40;94.40;;;;;;5094690;28;20221;-68
2022/07/17 04:56:33;;;;;;;10.65;9.15;;;17.50;94.50;;;;;;5095179;28;20260;-68
2022/07/17 04:59:00;;;;;;;8.70;7.90;;;17.60;94.70;;;;;;5095007;28;20237;-67
2022/07/17 05:01:27;;;;;;;10.25;9.25;;;17.60;94.70;;;;;;5094902;28;20245;-68
2022/07/17 05:03:53;;;;;;;9.27;8.43;;;17.60;94.60;;;;;;5094932;28;20260;-68
2022/07/17 05:06:22;;;;;;;10.30;9.38;;;17.60;94.50;;;;;;5094942;28;20290;-69
2022/07/17 05:08:49;;;;;;;9.50;8.60;;;17.70;94.90;;;;;;5094954;28;20245;-68
2022/07/17 05:11:15;;;;;;;9.90;9.00;;;17.60;95.00;;;;;;5094872;28;20256;-69
2022/07/17 05:13:42;;;;;;;9.40;8.52;;;17.60;95.30;;;;;;5094299;28;20746;-70
2022/07/17 05:16:09;;;;;;;10.48;9.57;;;17.70;95.30;;;;;;5094449;28;20309;-68
2022/07/17 05:18:36;;;;;;;10.02;9.13;;;17.70;95.10;;;;;;5094759;28;20202;-68
2022/07/17 05:21:03;;;;;;;9.32;8.48;;;17.80;95.00;;;;;;5094882;28;20234;-68
2022/07/17 05:23:31;;;;;;;9.45;8.65;;;17.70;94.80;;;;;;5094507;28;20253;-68
2022/07/17 05:25:58;;;;;;;9.80;8.80;;;17.60;95.50;;;;;;5094524;28;20253;-68
2022/07/17 05:28:25;;;;;;;10.68;9.55;;;17.50;95.50;;;;;;5094656;28;20240;-68
2022/07/17 05:30:52;;;;;;;11.13;10.02;;;17.60;95.50;;;;;;5094166;28;20860;-68
2022/07/17 05:33:19;;;;;;;10.50;9.50;;;17.60;95.70;;;;;;5094450;28;20629;-69
2022/07/17 05:35:45;;;;;;;10.65;9.65;;;17.60;95.60;;;;;;5094248;28;20228;-68
2022/07/17 05:38:12;;;;;;;10.02;9.13;;;17.70;95.40;;;;;;5094335;28;20241;-68
2022/07/17 05:40:42;;;;;;;10.85;9.90;;;17.70;95.60;;;;;;5094213;28;20238;-68
2022/07/17 05:43:09;;;;;;;10.80;9.80;;;17.70;95.70;;;;;;5094597;28;20258;-69
2022/07/17 05:45:35;;;;;;;9.60;8.70;;;17.80;95.40;;;;;;5093066;28;20234;-69
2022/07/17 05:48:02;;;;;;;9.57;8.63;;;17.70;95.50;;;;;;5094199;28;20292;-68
2022/07/17 05:50:29;;;;;;;10.32;9.38;;;17.90;95.30;;;;;;5094295;28;20301;-68
2022/07/17 05:52:56;;;;;;;11.23;10.15;;;18.00;95.20;;;;;;5093766;28;20261;-69
2022/07/17 05:55:23;;;;;;;9.80;8.80;;;17.90;95.30;;;;;;5093864;28;20226;-68
2022/07/17 05:57:51;;;;;;;10.68;9.77;;;17.80;95.50;;;;;;5094139;28;20210;-68
2022/07/17 06:00:18;;;;;;;9.85;8.95;;;17.80;95.60;;;;;;5093915;28;20233;-68
2022/07/17 06:02:45;;;;;;;9.80;8.80;;;17.90;95.70;;;;;;5093857;28;20608;-68
2022/07/17 06:05:12;;;;;;;10.15;8.48;;;17.70;95.40;;;;;;5093873;28;20209;-68
2022/07/17 06:07:39;;;;;;;9.88;9.07;;;17.70;95.60;;;;;;5093799;28;20198;-68
2022/07/17 06:10:07;;;;;;;9.13;8.43;;;17.70;95.80;;;;;;5093877;28;20238;-68
2022/07/17 06:12:34;;;;;;;10.55;9.63;;;17.70;95.90;;;;;;5093786;28;20257;-68
2022/07/17 06:15:02;;;;;;;11.35;10.25;;;17.70;95.70;;;;;;5093613;28;20257;-68
2022/07/17 06:17:30;;;;;;;10.48;9.48;;;17.60;95.70;;;;;;5093641;28;20697;-68
2022/07/17 06:19:57;;;;;;;10.32;9.32;;;17.80;95.80;;;;;;5093638;28;20237;-68
2022/07/17 06:22:23;;;;;;;9.55;8.65;;;17.80;95.60;;;;;;5093536;28;20253;-68
2022/07/17 06:24:50;;;;;;;10.95;9.95;;;17.70;95.90;;;;;;5093589;28;20233;-68
2022/07/17 06:27:17;;;;;;;10.80;9.80;;;17.80;95.90;;;;;;5093820;28;20294;-68
2022/07/17 06:29:44;;;;;;;11.55;10.45;;;17.80;95.80;;;;;;5093604;28;20209;-68
2022/07/17 06:32:13;;;;;;;11.15;10.15;;;17.80;95.40;;;;;;5093653;28;20257;-68
2022/07/17 06:34:40;;;;;;;10.38;9.40;;;17.90;95.10;;;;;;5093480;28;20240;-68
2022/07/17 06:37:07;;;;;;;9.07;8.27;;;18.00;95.40;;;;;;5093259;28;20248;-68
2022/07/17 06:39:34;;;;;;;9.07;8.35;;;18.10;95.10;;;;;;5093515;28;20202;-68
2022/07/17 06:42:01;;;;;;;10.63;9.65;;;18.10;94.40;;;;;;5093443;28;20229;-68
2022/07/17 06:44:29;;;;;;;9.90;9.00;;;18.20;94.00;;;;;;5093164;28;20707;-68
2022/07/17 06:46:55;;;;;;;9.93;9.02;;;18.20;94.50;;;;;;5093595;28;20680;-68
2022/07/17 06:49:24;;;;;;;9.32;8.43;;;18.10;94.40;;;;;;5093380;28;20212;-68
2022/07/17 06:51:52;;;;;;;10.75;9.32;;;18.20;94.30;;;;;;5093344;28;20242;-68
2022/07/17 06:54:18;;;;;;;9.77;8.98;;;18.30;94.00;;;;;;5092957;28;20216;-68
2022/07/17 06:56:46;;;;;;;10.85;9.85;;;18.40;94.00;;;;;;5095691;28;20775;-68
2022/07/17 06:59:12;;;;;;;8.90;8.20;;;18.40;93.60;;;;;;5097349;28;20206;-68
2022/07/17 07:01:39;;;;;;;9.00;8.20;;;18.50;93.20;;;;;;5097216;28;20241;-68
2022/07/17 07:04:06;;;;;;;8.77;7.97;;;18.60;93.10;;;;;;5096982;28;20253;-68
2022/07/17 07:06:35;;;;;;;9.18;8.38;;;18.70;92.90;;;;;;5096963;28;20248;-68
2022/07/17 07:09:02;;;;;;;7.85;7.15;;;18.90;91.50;;;;;;5097146;28;20256;-68
2022/07/17 07:11:29;;;;;;;8.77;7.88;;;19.20;91.30;;;;;;5097073;28;20197;-68
2022/07/17 07:13:56;;;;;;;8.15;7.55;;;19.30;90.40;;;;;;5096849;28;20230;-68
2022/07/17 07:16:23;;;;;;;9.07;7.97;;;19.40;89.80;;;;;;5096847;28;20226;-68
2022/07/17 07:18:49;;;;;;;8.57;7.77;;;19.60;88.70;;;;;;5096973;28;20235;-68
2022/07/17 07:21:16;;;;;;;8.03;7.30;;;19.90;87.10;;;;;;5096896;28;20474;-68
2022/07/17 07:23:45;;;;;;;7.70;6.90;;;20.10;85.50;;;;;;5096346;28;20466;-68
2022/07/17 07:26:11;;;;;;;7.50;6.90;;;20.40;85.00;;;;;;5096642;28;20476;-68
2022/07/17 07:28:38;;;;;;;7.53;6.83;;;20.50;83.20;;;;;;5096749;28;20482;-68
2022/07/17 07:31:05;;;;;;;7.43;6.83;;;20.80;82.00;;;;;;5096759;28;20475;-68
2022/07/17 07:33:32;;;;;;;7.67;7.07;;;21.00;80.50;;;;;;5096427;28;20473;-68
2022/07/17 07:36:00;;;;;;;7.00;6.50;;;20.90;80.10;;;;;;5096494;28;20472;-68
2022/07/17 07:38:27;;;;;;;8.20;7.40;;;20.80;79.90;;;;;;5096531;28;20994;-68
2022/07/17 07:40:55;;;;;;;7.10;6.50;;;20.90;80.60;;;;;;5096481;28;20872;-68
2022/07/17 07:43:22;;;;;;;7.20;6.50;;;20.90;80.10;;;;;;5096276;28;20904;-68
2022/07/17 07:45:49;;;;;;;7.43;6.73;;;20.90;80.10;;;;;;5096361;28;20839;-68
2022/07/17 07:48:16;;;;;;;7.00;6.30;;;21.00;79.40;;;;;;5096408;28;20480;-68
2022/07/17 07:50:43;;;;;;;7.00;6.50;;;21.30;78.60;;;;;;5096147;28;20475;-68
2022/07/17 07:53:10;;;;;;;6.13;5.63;;;21.70;76.60;;;;;;5096053;28;20510;-68
2022/07/17 07:55:37;;;;;;;6.00;5.40;;;23.00;72.60;;;;;;5096039;28;20514;-68
2022/07/17 07:58:07;;;;;;;6.00;5.60;;;24.50;69.20;;;;;;5096169;28;20522;-68
2022/07/17 08:00:34;;;;;;;6.40;5.87;;;25.30;63.30;;;;;;5096157;28;20497;-68
2022/07/17 08:03:01;;;;;;;6.20;5.63;;;25.10;61.50;;;;;;5095815;28;21027;-68
2022/07/17 08:05:29;;;;;;;5.83;5.43;;;25.20;60.10;;;;;;5095699;28;20917;-68
2022/07/17 08:07:56;;;;;;;5.17;4.67;;;25.30;60.30;;;;;;5095092;28;20511;-68
2022/07/17 08:10:23;;;;;;;8.10;5.43;;;25.30;60.10;;;;;;5095955;28;20486;-69
2022/07/17 08:12:49;;;;;;;5.47;5.07;;;25.60;59.20;;;;;;5095933;28;20463;-69
2022/07/17 08:15:20;;;;;;;5.67;5.27;;;26.00;58.30;;;;;;5095407;28;20476;-68
2022/07/17 08:17:48;;;;;;;5.53;5.03;;;26.40;56.50;;;;;;5095880;28;20468;-68
2022/07/17 08:20:16;;;;;;;6.27;5.17;;;25.90;56.20;;;;;;5095800;28;20440;-68
2022/07/17 08:22:43;;;;;;;5.77;5.27;;;25.40;57.30;;;;;;5095462;28;20501;-68
2022/07/17 08:25:10;;;;;;;5.70;5.23;;;25.00;58.80;;;;;;5095548;28;20843;-68
2022/07/17 08:27:38;;;;;;;6.10;5.47;;;25.10;59.60;;;;;;5095409;28;20929;-68
2022/07/17 08:30:06;;;;;;;6.10;5.60;;;25.40;59.10;;;;;;5095619;28;20472;-68
2022/07/17 08:32:34;;;;;;;5.40;5.00;;;25.60;58.50;;;;;;5095477;28;20499;-69
2022/07/17 08:35:01;;;;;;;5.30;4.90;;;25.80;57.80;;;;;;5095387;28;20487;-68
2022/07/17 08:37:29;;;;;;;4.90;4.60;;;26.20;57.60;;;;;;5095409;28;20834;-68
2022/07/17 08:39:57;;;;;;;6.33;5.83;;;26.30;57.10;;;;;;5095381;28;20450;-69
2022/07/17 08:42:24;;;;;;;5.17;4.87;;;26.80;55.80;;;;;;5094997;28;21001;-69
2022/07/17 08:44:51;;;;;;;6.33;5.87;;;27.10;54.40;;;;;;5095158;28;20447;-69
2022/07/17 08:47:18;;;;;;;5.00;4.70;;;27.40;54.20;;;;;;5095252;28;20474;-69
2022/07/17 08:49:49;;;;;;;5.50;5.10;;;27.90;52.80;;;;;;5095181;28;20468;-69
2022/07/17 08:52:16;;;;;;;5.30;5.00;;;28.80;51.50;;;;;;5095064;28;20496;-69
2022/07/17 08:54:43;;;;;;;5.53;5.03;;;28.70;50.10;;;;;;5094659;28;20486;-69
2022/07/17 08:57:11;;;;;;;5.10;4.80;;;29.50;49.60;;;;;;5095034;28;20476;-68
2022/07/17 08:59:37;;;;;;;5.37;5.07;;;30.00;47.80;;;;;;5095087;28;20772;-68
2022/07/17 09:02:05;;;;;;;5.63;5.23;;;30.90;47.50;;;;;;5094857;28;20471;-69
2022/07/17 09:04:32;;;;;;;5.10;4.60;;;31.90;44.60;;;;;;5094820;28;20460;-69
2022/07/17 09:07:02;;;;;;;5.10;4.80;;;32.10;42.20;;;;;;5094832;28;20471;-69
2022/07/17 09:09:29;;;;;;;4.77;4.47;;;32.40;41.60;;;;;;5094864;28;20440;-69
2022/07/17 09:11:58;;;;;;;4.87;4.47;;;32.70;40.80;;;;;;5094707;28;20850;-69
2022/07/17 09:14:36;;;;;;;5.00;4.70;;;34.00;40.20;;;;;;5094625;28;20447;-69
2022/07/17 09:17:05;;;;;;;4.47;4.20;;;35.60;37.50;;;;;;5094325;28;20510;-69
2022/07/17 09:19:33;;;;;;;5.00;4.70;;;36.30;36.50;;;;;;5094536;28;20968;-69
2022/07/17 09:22:11;;;;;;;4.50;4.20;;;37.30;34.50;;;;;;5094338;28;20447;-69
2022/07/17 09:24:47;;;;;;;4.50;4.20;;;36.90;33.00;;;;;;5094207;28;20430;-69
2022/07/17 09:27:18;;;;;;;4.30;4.00;;;35.80;34.00;;;;;;5094534;28;20432;-69
2022/07/17 09:29:53;;;;;;;4.37;4.10;;;36.20;33.90;;;;;;5094428;28;20814;-69
2022/07/17 09:32:21;;;;;;;4.43;4.23;;;37.60;32.50;;;;;;5094245;28;20495;-69
2022/07/17 09:34:48;;;;;;;4.50;4.20;;;38.30;30.80;;;;;;5094183;28;20482;-67
2022/07/17 09:37:17;;;;;;;4.30;4.00;;;37.30;30.70;;;;;;5094215;28;20507;-67
2022/07/17 09:39:44;;;;;;;3.80;3.50;;;36.30;31.30;;;;;;5094258;28;20912;-67
2022/07/17 09:42:23;;;;;;;3.63;3.33;;;36.90;29.80;;;;;;5094155;28;20542;-67
2022/07/17 09:44:56;;;;;;;3.40;3.30;;;38.20;30.10;;;;;;5094140;28;20424;-67
2022/07/17 09:47:24;;;;;;;2.90;2.80;;;39.00;29.60;;;;;;5094013;28;20455;-67
2022/07/17 09:49:53;;;;;;;2.80;2.67;;;37.90;27.30;;;;;;5094103;28;20539;-67
2022/07/17 09:52:22;;;;;;;3.50;3.20;;;37.20;27.80;;;;;;5093968;28;20496;-67
2022/07/17 09:54:49;;;;;;;4.20;3.90;;;37.50;28.60;;;;;;5093627;28;20436;-67
2022/07/17 09:57:17;;;;;;;3.43;3.23;;;38.50;27.40;;;;;;5094001;28;20511;-67
2022/07/17 09:59:46;;;;;;;3.77;3.57;;;37.60;27.80;;;;;;5093978;28;20859;-67
2022/07/17 10:02:13;;;;;;;3.40;3.20;;;36.50;28.50;;;;;;5093712;28;20499;-69
2022/07/17 10:04:41;;;;;;;3.53;3.33;;;36.30;28.50;;;;;;5093797;28;20475;-69
2022/07/17 10:07:09;;;;;;;4.40;4.10;;;36.30;29.10;;;;;;5093820;28;20442;-69
2022/07/17 10:09:38;;;;;;;3.80;3.60;;;36.10;29.90;;;;;;5093859;28;20428;-67
2022/07/17 10:12:07;;;;;;;3.87;3.67;;;36.80;30.00;;;;;;5093775;28;20495;-67
2022/07/17 10:14:38;;;;;;;3.70;3.50;;;36.30;29.50;;;;;;5093617;28;20444;-67
2022/07/17 10:17:09;;;;;;;3.80;3.60;;;36.20;30.50;;;;;;5093588;28;20471;-67
2022/07/17 10:19:46;;;;;;;3.90;3.70;;;36.50;30.10;;;;;;5093785;28;20867;-67
2022/07/17 10:22:12;;;;;;;3.60;3.40;;;35.50;29.90;;;;;;5093744;28;20468;-69
2022/07/17 10:24:49;;;;;;;3.90;3.70;;;35.10;30.30;;;;;;5093570;28;20479;-69
2022/07/17 10:27:23;;;;;;;4.43;4.13;;;34.70;31.20;;;;;;5093561;28;20941;-69
2022/07/17 10:30:01;;;;;;;4.10;3.80;;;34.00;32.30;;;;;;5093679;28;20476;-69
2022/07/17 10:32:28;;;;;;;4.03;3.80;;;34.10;33.70;;;;;;5097494;28;20478;-69
2022/07/17 10:35:00;;;;;;;4.53;4.23;;;34.50;32.70;;;;;;5097936;28;20471;-69
2022/07/17 10:37:31;;;;;;;4.00;3.80;;;34.90;31.40;;;;;;5097718;28;20478;-69
2022/07/17 10:40:16;;;;;;;4.43;4.13;;;34.80;32.00;;;;;;5097805;28;20491;-69
2022/07/17 10:42:48;;;;;;;3.93;3.70;;;34.20;32.70;;;;;;5097638;28;20460;-69
2022/07/17 10:45:16;;;;;;;4.60;4.30;;;33.70;33.70;;;;;;5097251;28;20439;-69
2022/07/17 10:47:59;;;;;;;3.80;3.60;;;32.80;34.60;;;;;;5097416;28;20475;-69
2022/07/17 10:50:29;;;;;;;4.03;3.83;;;32.40;35.50;;;;;;5095709;28;20891;-69
2022/07/17 10:53:05;;;;;;;4.50;4.20;;;31.70;34.50;;;;;;5097404;28;20500;-70
2022/07/17 10:55:34;;;;;;;4.20;3.90;;;31.00;35.40;;;;;;5097426;28;20437;-69
2022/07/17 10:58:01;;;;;;;4.50;4.20;;;30.20;35.80;;;;;;5097079;28;21016;-69
2022/07/17 11:00:28;;;;;;;4.07;3.77;;;29.70;38.10;;;;;;5097123;28;20479;-69
2022/07/17 11:02:55;;;;;;;3.87;3.63;;;29.40;37.80;;;;;;5097113;28;20502;-69
2022/07/17 11:05:23;;;;;;;4.10;3.80;;;29.20;39.30;;;;;;5096916;28;20450;-69
2022/07/17 11:07:55;;;;;;;4.10;3.90;;;29.30;39.30;;;;;;5097215;28;20503;-69
2022/07/17 11:10:23;;;;;;;4.30;4.00;;;29.30;39.20;;;;;;5097620;28;20451;-69
2022/07/17 11:12:51;;;;;;;3.93;3.73;;;29.30;39.30;;;;;;5096902;28;20474;-69
2022/07/17 11:15:18;;;;;;;3.83;3.63;;;29.30;39.20;;;;;;5096925;28;20848;-69
2022/07/17 11:17:47;;;;;;;4.30;4.00;;;29.40;39.40;;;;;;5096948;28;20567;-69
2022/07/17 11:20:15;;;;;;;4.30;4.00;;;29.70;40.30;;;;;;5096857;28;20439;-69
2022/07/17 11:22:42;;;;;;;4.10;3.80;;;29.70;38.50;;;;;;5096925;28;20499;-69
2022/07/17 11:25:11;;;;;;;4.40;3.97;;;29.60;38.70;;;;;;5096715;28;20472;-69
2022/07/17 11:27:39;;;;;;;4.40;4.00;;;29.60;39.20;;;;;;5096556;28;20922;-69
2022/07/17 11:30:15;;;;;;;3.90;3.60;;;29.40;38.50;;;;;;5096805;28;20451;-69
2022/07/17 11:32:43;;;;;;;3.90;3.60;;;29.00;39.50;;;;;;5096421;28;20475;-69
2022/07/17 11:35:17;;;;;;;3.80;3.60;;;29.10;39.00;;;;;;5096531;28;20436;-69
2022/07/17 11:37:44;;;;;;;3.73;3.53;;;29.20;36.40;;;;;;5096383;28;21021;-69
2022/07/17 11:40:12;;;;;;;3.50;3.30;;;29.30;37.60;;;;;;5096455;28;20478;-69
2022/07/17 11:42:38;;;;;;;4.60;4.30;;;29.30;37.80;;;;;;5095156;28;20506;-69
2022/07/17 11:45:08;;;;;;;4.43;4.13;;;29.50;38.50;;;;;;5096003;28;20491;-69
2022/07/17 11:47:36;;;;;;;3.90;3.60;;;29.60;38.80;;;;;;5097332;28;20452;-69
2022/07/17 11:50:11;;;;;;;3.80;3.50;;;29.80;38.00;;;;;;5096425;28;20438;-69
2022/07/17 11:52:43;;;;;;;3.70;3.50;;;29.90;38.30;;;;;;5096332;28;20455;-69
2022/07/17 11:55:11;;;;;;;4.20;3.90;;;29.90;38.20;;;;;;5096246;28;20438;-69
2022/07/17 11:57:46;;;;;;;4.70;4.40;;;29.80;37.70;;;;;;5096116;28;20490;-69
2022/07/17 12:00:16;;;;;;;4.13;3.83;;;29.50;38.30;;;;;;5096231;28;20450;-69
2022/07/17 12:02:43;;;;;;;4.10;3.90;;;29.20;38.00;;;;;;5096007;28;20693;-69
2022/07/17 12:05:11;;;;;;;4.17;3.87;;;29.10;38.30;;;;;;5095979;28;20801;-69
2022/07/17 12:07:43;;;;;;;4.63;4.23;;;29.20;38.70;;;;;;5096084;28;20467;-69
2022/07/17 12:10:15;;;;;;;3.80;3.60;;;29.50;38.10;;;;;;5096012;28;20439;-69
2022/07/17 12:12:53;;;;;;;3.93;3.67;;;29.70;37.20;;;;;;5095995;28;20470;-69
2022/07/17 12:15:22;;;;;;;3.67;3.47;;;29.90;37.50;;;;;;5095848;28;20450;-69
2022/07/17 12:17:49;;;;;;;4.27;3.97;;;30.20;37.40;;;;;;5095821;28;20487;-69
2022/07/17 12:20:16;;;;;;;3.77;3.57;;;30.30;36.20;;;;;;5095906;28;20494;-69
2022/07/17 12:22:44;;;;;;;4.03;3.83;;;30.40;37.30;;;;;;5095777;28;20500;-69
2022/07/17 12:25:22;;;;;;;4.10;3.90;;;30.40;37.40;;;;;;5095593;28;20444;-69
2022/07/17 12:27:49;;;;;;;4.60;4.30;;;30.40;38.00;;;;;;5095693;28;20467;-69
2022/07/17 12:30:16;;;;;;;4.10;3.90;;;30.50;37.60;;;;;;5095515;28;20475;-69
2022/07/17 12:32:44;;;;;;;4.00;3.80;;;30.60;36.60;;;;;;5095574;28;20523;-69
2022/07/17 12:35:11;;;;;;;4.13;3.93;;;30.50;36.70;;;;;;5095324;28;20870;-69
2022/07/17 12:37:38;;;;;;;4.33;4.13;;;30.50;37.90;;;;;;5095139;28;20566;-69
2022/07/17 12:40:06;;;;;;;4.17;3.97;;;30.40;37.40;;;;;;5095096;28;20486;-69
2022/07/17 12:42:33;;;;;;;4.30;4.10;;;30.20;37.40;;;;;;5095013;28;20502;-69
2022/07/17 12:45:01;;;;;;;4.07;3.87;;;29.90;37.80;;;;;;5094967;28;20444;-69
2022/07/17 12:47:28;;;;;;;4.13;3.93;;;29.90;38.50;;;;;;5095270;28;20454;-69
2022/07/17 12:49:56;;;;;;;4.83;4.53;;;29.70;38.50;;;;;;5095166;28;20964;-69